Time,TemperatureF,DewpointF,PressureIn,WindDirection,WindDirectionDegrees,WindSpeedMPH,WindSpeedGustMPH,Humidity,HourlyPrecipIn,Conditions,Clouds,dailyrainin,SolarRadiationWatts/m^2,SoftwareType,DateUTC
2013-09-17 00:01:00,40.3,37.6,30.38,SE,130,0.0,1.0,90,0.00,,,0.00,0.0,meteohub,2013-09-17 04:01:00,
2013-09-17 00:02:00,40.1,37.4,30.38,SE,130,0.0,1.0,90,0.00,,,0.00,0.0,meteohub,2013-09-17 04:02:00,
2013-09-17 00:07:00,39.9,37.2,30.38,SE,130,0.0,1.0,90,0.00,,,0.00,0.0,meteohub,2013-09-17 04:07:00,
2013-09-17 00:12:00,39.7,37.0,30.38,SE,130,0.0,1.0,90,0.00,,,0.00,0.0,meteohub,2013-09-17 04:12:00,
2013-09-17 00:17:00,39.4,36.7,30.38,SE,130,0.0,1.0,90,0.00,,,0.00,0.0,meteohub,2013-09-17 04:17:00,
2013-09-17 00:22:00,39.0,36.7,30.38,SE,130,0.0,0.0,91,0.00,,,0.00,0.0,meteohub,2013-09-17 04:22:00,
2013-09-17 00:27:00,38.8,36.5,30.38,SE,130,0.0,0.0,91,0.00,,,0.00,0.0,meteohub,2013-09-17 04:27:00,
2013-09-17 00:32:00,38.7,36.5,30.38,SE,130,0.0,1.0,92,0.00,,,0.00,0.0,meteohub,2013-09-17 04:32:00,
2013-09-17 00:37:00,38.5,36.7,30.38,SE,130,1.0,1.0,93,0.00,,,0.00,0.0,meteohub,2013-09-17 04:37:00,
2013-09-17 00:42:00,38.5,36.7,30.38,SE,130,1.0,2.0,93,0.00,,,0.00,0.0,meteohub,2013-09-17 04:42:00,
2013-09-17 00:47:00,38.1,36.5,30.38,SE,130,0.0,2.0,94,0.00,,,0.00,0.0,meteohub,2013-09-17 04:47:00,
2013-09-17 00:52:00,38.1,36.5,30.38,SE,130,0.0,2.0,94,0.00,,,0.00,0.0,meteohub,2013-09-17 04:52:00,
2013-09-17 00:57:00,37.9,36.3,30.38,SE,130,1.0,1.0,94,0.00,,,0.00,0.0,meteohub,2013-09-17 04:57:00,
2013-09-17 01:02:00,37.8,36.1,30.38,SE,130,0.0,1.0,94,0.00,,,0.00,0.0,meteohub,2013-09-17 05:02:00,
2013-09-17 01:07:00,37.6,36.0,30.38,SE,134,1.0,2.0,94,0.00,,,0.00,0.0,meteohub,2013-09-17 05:07:00,
2013-09-17 01:12:00,37.4,36.1,30.38,SE,134,1.0,2.0,95,0.00,,,0.00,0.0,meteohub,2013-09-17 05:12:00,
2013-09-17 01:17:00,37.4,36.1,30.38,SE,134,1.0,2.0,95,0.00,,,0.00,0.0,meteohub,2013-09-17 05:17:00,
2013-09-17 01:22:00,37.2,36.0,30.38,SE,134,2.0,2.0,95,0.00,,,0.00,0.0,meteohub,2013-09-17 05:22:00,
2013-09-17 01:27:00,37.0,35.8,30.38,SSE,157,1.0,2.0,95,0.00,,,0.00,0.0,meteohub,2013-09-17 05:27:00,
2013-09-17 01:32:00,37.0,36.0,30.38,SW,217,1.0,2.0,96,0.00,,,0.00,0.0,meteohub,2013-09-17 05:32:00,
2013-09-17 01:37:00,37.6,36.5,30.38,SW,225,1.0,2.0,96,0.00,,,0.00,0.0,meteohub,2013-09-17 05:37:00,
2013-09-17 01:42:00,37.9,36.9,30.38,SW,236,2.0,3.0,96,0.00,,,0.00,0.0,meteohub,2013-09-17 05:42:00,
2013-09-17 01:47:00,38.3,37.2,30.38,SW,232,1.0,3.0,96,0.00,,,0.00,0.0,meteohub,2013-09-17 05:47:00,
2013-09-17 01:52:00,38.7,37.4,30.38,SW,226,1.0,3.0,95,0.00,,,0.00,0.0,meteohub,2013-09-17 05:52:00,
2013-09-17 01:57:00,38.8,37.2,30.38,SW,217,1.0,3.0,94,0.00,,,0.00,0.0,meteohub,2013-09-17 05:57:00,
2013-09-17 02:02:00,39.2,37.6,30.38,SW,221,0.0,3.0,94,0.00,,,0.00,0.0,meteohub,2013-09-17 06:02:00,
2013-09-17 02:07:00,39.4,37.6,30.38,SW,221,0.0,2.0,93,0.00,,,0.00,0.0,meteohub,2013-09-17 06:07:00,
2013-09-17 02:12:00,39.2,37.0,30.38,SW,219,1.0,2.0,92,0.00,,,0.00,0.0,meteohub,2013-09-17 06:12:00,
2013-09-17 02:17:00,39.0,36.9,30.38,SSW,208,0.0,2.0,92,0.00,,,0.00,0.0,meteohub,2013-09-17 06:17:00,
2013-09-17 02:22:00,38.7,36.3,30.38,SSW,207,1.0,2.0,91,0.00,,,0.00,0.0,meteohub,2013-09-17 06:22:00,
2013-09-17 02:27:00,38.3,36.1,30.38,SSW,205,1.0,2.0,92,0.00,,,0.00,0.0,meteohub,2013-09-17 06:27:00,
2013-09-17 02:32:00,38.1,36.0,30.38,SSW,205,0.0,2.0,92,0.00,,,0.00,0.0,meteohub,2013-09-17 06:32:00,
2013-09-17 02:37:00,38.1,36.3,30.38,SSW,206,1.0,2.0,93,0.00,,,0.00,0.0,meteohub,2013-09-17 06:37:00,
2013-09-17 02:42:00,37.9,36.1,30.38,SSW,205,1.0,2.0,93,0.00,,,0.00,0.0,meteohub,2013-09-17 06:42:00,
2013-09-17 02:47:00,38.1,36.5,30.38,SW,215,1.0,3.0,94,0.00,,,0.00,0.0,meteohub,2013-09-17 06:47:00,
2013-09-17 02:52:00,38.1,36.5,30.38,SW,215,0.0,3.0,94,0.00,,,0.00,0.0,meteohub,2013-09-17 06:52:00,
2013-09-17 02:57:00,38.3,36.7,30.38,SW,223,1.0,2.0,94,0.00,,,0.00,0.0,meteohub,2013-09-17 06:57:00,
2013-09-17 03:02:00,38.5,36.9,30.38,SSW,211,1.0,2.0,94,0.00,,,0.00,0.0,meteohub,2013-09-17 07:02:00,
2013-09-17 03:07:00,38.7,37.0,30.38,SSW,211,2.0,3.0,94,0.00,,,0.00,0.0,meteohub,2013-09-17 07:07:00,
2013-09-17 03:12:00,38.7,37.0,30.38,SSW,211,1.0,3.0,94,0.00,,,0.00,0.0,meteohub,2013-09-17 07:12:00,
2013-09-17 03:17:00,38.5,36.7,30.38,South,180,0.0,3.0,93,0.00,,,0.00,0.0,meteohub,2013-09-17 07:17:00,
2013-09-17 03:22:00,38.1,36.3,30.38,South,180,1.0,2.0,93,0.00,,,0.00,0.0,meteohub,2013-09-17 07:22:00,
2013-09-17 03:28:00,37.9,36.3,30.38,South,180,1.0,2.0,94,0.00,,,0.00,0.0,meteohub,2013-09-17 07:28:00,
2013-09-17 03:33:00,37.9,36.3,30.38,South,180,1.0,2.0,94,0.00,,,0.00,0.0,meteohub,2013-09-17 07:33:00,
2013-09-17 03:38:00,37.8,36.0,30.38,South,180,1.0,2.0,93,0.00,,,0.00,0.0,meteohub,2013-09-17 07:38:00,
2013-09-17 03:43:00,37.6,35.8,30.38,South,180,0.0,2.0,93,0.00,,,0.00,0.0,meteohub,2013-09-17 07:43:00,
2013-09-17 03:48:00,37.2,35.6,30.38,South,180,1.0,2.0,94,0.00,,,0.00,0.0,meteohub,2013-09-17 07:48:00,
2013-09-17 03:53:00,37.0,35.4,30.38,South,180,1.0,2.0,94,0.00,,,0.00,0.0,meteohub,2013-09-17 07:53:00,
2013-09-17 03:58:00,37.0,35.8,30.38,South,180,1.0,2.0,95,0.00,,,0.00,0.0,meteohub,2013-09-17 07:58:00,
2013-09-17 04:03:00,37.0,35.8,30.38,South,180,1.0,2.0,95,0.00,,,0.00,0.0,meteohub,2013-09-17 08:03:00,
2013-09-17 04:08:00,37.0,35.8,30.38,South,181,1.0,2.0,95,0.00,,,0.00,0.0,meteohub,2013-09-17 08:08:00,
2013-09-17 04:13:00,37.0,35.8,30.38,South,181,0.0,2.0,95,0.00,,,0.00,0.0,meteohub,2013-09-17 08:13:00,
2013-09-17 04:18:00,37.0,35.8,30.38,South,181,1.0,2.0,95,0.00,,,0.00,0.0,meteohub,2013-09-17 08:18:00,
2013-09-17 04:23:00,36.7,35.4,30.38,South,181,1.0,2.0,95,0.00,,,0.00,0.0,meteohub,2013-09-17 08:23:00,
2013-09-17 04:28:00,36.3,34.7,30.38,South,181,0.0,2.0,94,0.00,,,0.00,0.0,meteohub,2013-09-17 08:28:00,
2013-09-17 04:33:00,36.1,34.9,30.38,South,181,1.0,2.0,95,0.00,,,0.00,0.0,meteohub,2013-09-17 08:33:00,
2013-09-17 04:38:00,36.1,34.9,30.38,South,184,1.0,2.0,95,0.00,,,0.00,0.0,meteohub,2013-09-17 08:38:00,
2013-09-17 04:43:00,36.1,35.1,30.38,South,178,2.0,2.0,96,0.00,,,0.00,0.0,meteohub,2013-09-17 08:43:00,
2013-09-17 04:48:00,36.1,35.1,30.38,South,178,1.0,2.0,96,0.00,,,0.00,0.0,meteohub,2013-09-17 08:48:00,
2013-09-17 04:53:00,36.1,35.1,30.38,South,184,1.0,3.0,96,0.00,,,0.00,0.0,meteohub,2013-09-17 08:53:00,
2013-09-17 04:58:00,36.1,35.1,30.38,South,184,0.0,3.0,96,0.00,,,0.00,0.0,meteohub,2013-09-17 08:58:00,
2013-09-17 05:03:00,36.0,34.9,30.38,South,184,1.0,3.0,96,0.00,,,0.00,0.0,meteohub,2013-09-17 09:03:00,
2013-09-17 05:08:00,35.6,34.5,30.38,South,184,0.0,2.0,96,0.00,,,0.00,0.0,meteohub,2013-09-17 09:08:00,
2013-09-17 05:13:00,35.4,34.3,30.38,South,184,0.0,2.0,96,0.00,,,0.00,0.0,meteohub,2013-09-17 09:13:00,
2013-09-17 05:18:00,35.2,34.2,30.38,South,184,0.0,2.0,96,0.00,,,0.00,0.0,meteohub,2013-09-17 09:18:00,
2013-09-17 05:23:00,35.1,34.0,30.38,South,184,1.0,2.0,96,0.00,,,0.00,0.0,meteohub,2013-09-17 09:23:00,
2013-09-17 05:28:00,35.1,34.0,30.38,South,178,0.0,2.0,96,0.00,,,0.00,0.0,meteohub,2013-09-17 09:28:00,
2013-09-17 05:33:00,34.9,33.8,30.38,South,178,0.0,2.0,96,0.00,,,0.00,0.0,meteohub,2013-09-17 09:33:00,
2013-09-17 05:38:00,34.7,33.6,30.38,South,178,1.0,2.0,96,0.00,,,0.00,0.0,meteohub,2013-09-17 09:38:00,
2013-09-17 05:43:00,34.5,33.4,30.38,South,178,0.0,2.0,96,0.00,,,0.00,0.0,meteohub,2013-09-17 09:43:00,
2013-09-17 05:48:00,34.5,33.4,30.38,South,178,0.0,1.0,96,0.00,,,0.00,0.0,meteohub,2013-09-17 09:48:00,
2013-09-17 05:53:00,34.3,33.3,30.38,South,178,0.0,1.0,96,0.00,,,0.00,0.0,meteohub,2013-09-17 09:53:00,
2013-09-17 05:58:00,34.2,33.1,30.38,South,178,0.0,1.0,96,0.00,,,0.00,0.0,meteohub,2013-09-17 09:58:00,
2013-09-17 06:03:00,34.2,33.4,30.38,South,178,1.0,1.0,97,0.00,,,0.00,0.0,meteohub,2013-09-17 10:03:00,
2013-09-17 06:08:00,34.2,33.1,30.38,South,172,0.0,1.0,96,0.00,,,0.00,0.0,meteohub,2013-09-17 10:08:00,
2013-09-17 06:13:00,34.0,32.9,30.38,South,172,1.0,1.0,96,0.00,,,0.00,0.0,meteohub,2013-09-17 10:13:00,
2013-09-17 06:18:00,34.0,32.9,30.38,South,172,0.0,1.0,96,0.00,,,0.00,0.0,meteohub,2013-09-17 10:18:00,
2013-09-17 06:23:00,33.8,33.1,30.38,South,172,1.0,1.0,97,0.00,,,0.00,0.0,meteohub,2013-09-17 10:23:00,
2013-09-17 06:28:00,33.6,32.9,30.38,SSE,165,1.0,1.0,97,0.00,,,0.00,0.0,meteohub,2013-09-17 10:28:00,
2013-09-17 06:33:00,33.6,32.9,30.38,SSE,163,1.0,2.0,97,0.00,,,0.00,0.0,meteohub,2013-09-17 10:33:00,
2013-09-17 06:38:00,33.6,32.9,30.38,SSE,163,0.0,2.0,97,0.00,,,0.00,0.0,meteohub,2013-09-17 10:38:00,
2013-09-17 06:43:00,33.6,32.9,30.38,SSE,166,1.0,2.0,97,0.00,,,0.00,0.0,meteohub,2013-09-17 10:43:00,
2013-09-17 06:48:00,33.8,33.1,30.38,SSE,166,0.0,2.0,97,0.00,,,0.00,0.0,meteohub,2013-09-17 10:48:00,
2013-09-17 06:53:00,33.8,33.1,30.38,SSE,166,0.0,2.0,97,0.00,,,0.00,0.0,meteohub,2013-09-17 10:53:00,
2013-09-17 06:58:00,33.8,33.1,30.38,SSE,166,0.0,2.0,97,0.00,,,0.00,0.0,meteohub,2013-09-17 10:58:00,
2013-09-17 07:03:00,33.6,32.9,30.38,SSE,166,0.0,1.0,97,0.00,,,0.00,0.0,meteohub,2013-09-17 11:03:00,
2013-09-17 07:08:00,33.6,32.9,30.38,SSE,166,0.0,0.0,97,0.00,,,0.00,0.0,meteohub,2013-09-17 11:08:00,
2013-09-17 07:13:00,33.6,32.9,30.38,SSE,166,0.0,0.0,97,0.00,,,0.00,0.0,meteohub,2013-09-17 11:13:00,
2013-09-17 07:18:00,33.6,32.9,30.38,SSE,166,0.0,0.0,97,0.00,,,0.00,0.0,meteohub,2013-09-17 11:18:00,
2013-09-17 07:23:00,33.6,32.9,30.38,SSE,166,0.0,1.0,97,0.00,,,0.00,5.0,meteohub,2013-09-17 11:23:00,
2013-09-17 07:28:00,33.6,32.9,30.38,SSE,166,0.0,1.0,97,0.00,,,0.00,11.0,meteohub,2013-09-17 11:28:00,
2013-09-17 07:33:00,33.6,32.9,30.39,SSE,166,0.0,1.0,97,0.00,,,0.00,14.0,meteohub,2013-09-17 11:33:00,
2013-09-17 07:38:00,33.8,33.3,30.39,SSE,166,0.0,0.0,98,0.00,,,0.00,18.0,meteohub,2013-09-17 11:38:00,
2013-09-17 07:43:00,33.8,33.3,30.39,SSE,166,0.0,0.0,98,0.00,,,0.00,23.0,meteohub,2013-09-17 11:43:00,
2013-09-17 07:48:00,34.2,33.6,30.39,SSE,166,0.0,1.0,98,0.00,,,0.00,26.0,meteohub,2013-09-17 11:48:00,
2013-09-17 07:53:00,34.3,33.8,30.39,SSE,166,0.0,2.0,98,0.00,,,0.00,30.0,meteohub,2013-09-17 11:53:00,
2013-09-17 07:58:00,34.5,34.0,30.39,SSE,166,0.0,2.0,98,0.00,,,0.00,33.0,meteohub,2013-09-17 11:58:00,
2013-09-17 08:04:00,34.7,34.2,30.38,SSE,162,1.0,2.0,98,0.00,,,0.00,35.0,meteohub,2013-09-17 12:04:00,
2013-09-17 08:09:00,35.1,34.5,30.38,SE,142,1.0,2.0,98,0.00,,,0.00,54.0,meteohub,2013-09-17 12:09:00,
2013-09-17 08:14:00,35.2,34.7,30.38,SE,144,1.0,2.0,98,0.00,,,0.00,42.0,meteohub,2013-09-17 12:14:00,
2013-09-17 08:19:00,36.0,35.4,30.38,SE,144,0.0,2.0,98,0.00,,,0.00,97.0,meteohub,2013-09-17 12:19:00,
2013-09-17 08:24:00,36.7,36.1,30.38,SE,144,1.0,2.0,98,0.00,,,0.00,160.0,meteohub,2013-09-17 12:24:00,
2013-09-17 08:29:00,38.8,38.3,30.38,SSE,165,1.0,1.0,98,0.00,,,0.00,178.0,meteohub,2013-09-17 12:29:00,
2013-09-17 08:34:00,40.1,39.6,30.39,SSW,202,2.0,2.0,98,0.00,,,0.00,193.0,meteohub,2013-09-17 12:34:00,
2013-09-17 08:39:00,41.5,41.0,30.38,SSE,154,2.0,4.0,98,0.00,,,0.00,209.0,meteohub,2013-09-17 12:39:00,
2013-09-17 08:44:00,42.8,40.6,30.39,South,180,0.0,4.0,92,0.00,,,0.00,221.0,meteohub,2013-09-17 12:44:00,
2013-09-17 08:49:00,43.3,40.3,30.39,South,184,2.0,4.0,89,0.00,,,0.00,236.0,meteohub,2013-09-17 12:49:00,
2013-09-17 08:54:00,44.2,41.0,30.38,SSW,209,3.0,4.0,88,0.00,,,0.00,248.0,meteohub,2013-09-17 12:54:00,
2013-09-17 08:59:00,45.1,41.5,30.38,SSW,206,3.0,5.0,87,0.00,,,0.00,262.0,meteohub,2013-09-17 12:59:00,
2013-09-17 09:04:00,45.5,41.9,30.38,SW,215,2.0,5.0,87,0.00,,,0.00,276.0,meteohub,2013-09-17 13:04:00,
2013-09-17 09:09:00,46.0,42.1,30.38,SW,223,2.0,5.0,86,0.00,,,0.00,290.0,meteohub,2013-09-17 13:09:00,
2013-09-17 09:14:00,46.8,42.8,30.38,SW,225,3.0,4.0,86,0.00,,,0.00,304.0,meteohub,2013-09-17 13:14:00,
2013-09-17 09:19:00,47.1,43.2,30.38,SSW,209,1.0,4.0,86,0.00,,,0.00,320.0,meteohub,2013-09-17 13:19:00,
2013-09-17 09:24:00,47.7,43.3,30.38,SSW,211,3.0,4.0,85,0.00,,,0.00,334.0,meteohub,2013-09-17 13:24:00,
2013-09-17 09:29:00,48.4,43.7,30.38,SW,227,1.0,5.0,84,0.00,,,0.00,350.0,meteohub,2013-09-17 13:29:00,
2013-09-17 09:34:00,48.7,43.5,30.38,WSW,243,1.0,5.0,82,0.00,,,0.00,369.0,meteohub,2013-09-17 13:34:00,
2013-09-17 09:39:00,48.9,43.7,30.38,SW,215,3.0,5.0,82,0.00,,,0.00,388.0,meteohub,2013-09-17 13:39:00,
2013-09-17 09:44:00,49.5,43.9,30.38,SSW,196,4.0,7.0,81,0.00,,,0.00,410.0,meteohub,2013-09-17 13:44:00,
2013-09-17 09:49:00,49.6,44.8,30.38,South,184,4.0,7.0,83,0.00,,,0.00,422.0,meteohub,2013-09-17 13:49:00,
2013-09-17 09:54:00,50.5,45.3,30.38,WNW,291,1.0,7.0,82,0.00,,,0.00,434.0,meteohub,2013-09-17 13:54:00,
2013-09-17 10:00:00,50.9,45.0,30.38,SSW,210,5.0,7.0,80,0.00,,,0.00,448.0,meteohub,2013-09-17 14:00:00,
2013-09-17 10:05:00,50.4,44.8,30.38,SSW,207,3.0,7.0,81,0.00,,,0.00,461.0,meteohub,2013-09-17 14:05:00,
2013-09-17 10:10:00,50.7,45.1,30.38,WSW,239,3.0,8.0,81,0.00,,,0.00,476.0,meteohub,2013-09-17 14:10:00,
2013-09-17 10:15:00,51.1,45.1,30.38,SSW,193,2.0,8.0,80,0.00,,,0.00,490.0,meteohub,2013-09-17 14:15:00,
2013-09-17 10:20:00,52.2,46.2,30.38,SW,236,4.0,9.0,80,0.00,,,0.00,504.0,meteohub,2013-09-17 14:20:00,
2013-09-17 10:25:00,51.6,45.7,30.38,SW,234,4.0,9.0,80,0.00,,,0.00,519.0,meteohub,2013-09-17 14:25:00,
2013-09-17 10:30:00,52.2,45.5,30.38,SW,231,3.0,9.0,78,0.00,,,0.00,531.0,meteohub,2013-09-17 14:30:00,
2013-09-17 10:35:00,52.9,46.2,30.38,South,185,2.0,8.0,78,0.00,,,0.00,543.0,meteohub,2013-09-17 14:35:00,
2013-09-17 10:40:00,53.4,46.4,30.38,South,186,0.0,8.0,77,0.00,,,0.00,557.0,meteohub,2013-09-17 14:40:00,
2013-09-17 10:45:00,53.4,46.0,30.37,SW,233,7.0,8.0,76,0.00,,,0.00,568.0,meteohub,2013-09-17 14:45:00,
2013-09-17 10:50:00,53.6,45.9,30.37,South,178,1.0,7.0,75,0.00,,,0.00,568.0,meteohub,2013-09-17 14:50:00,
2013-09-17 10:55:00,54.5,45.7,30.37,SW,219,5.0,7.0,72,0.00,,,0.00,582.0,meteohub,2013-09-17 14:55:00,
2013-09-17 11:00:00,54.0,45.5,30.37,NE,41,2.0,8.0,73,0.00,,,0.00,599.0,meteohub,2013-09-17 15:00:00,
2013-09-17 11:05:00,54.3,46.2,30.37,South,177,5.0,8.0,74,0.00,,,0.00,610.0,meteohub,2013-09-17 15:05:00,
2013-09-17 11:10:00,54.7,46.2,30.37,SW,216,3.0,9.0,73,0.00,,,0.00,622.0,meteohub,2013-09-17 15:10:00,
2013-09-17 11:15:00,54.9,45.7,30.37,WSW,248,2.0,9.0,71,0.00,,,0.00,633.0,meteohub,2013-09-17 15:15:00,
2013-09-17 11:20:00,55.2,45.7,30.37,SSW,213,4.0,9.0,70,0.00,,,0.00,643.0,meteohub,2013-09-17 15:20:00,
2013-09-17 11:25:00,57.0,46.6,30.37,South,182,2.0,8.0,68,0.00,,,0.00,654.0,meteohub,2013-09-17 15:25:00,
2013-09-17 11:30:00,56.7,45.0,30.37,SSW,202,4.0,8.0,65,0.00,,,0.00,659.0,meteohub,2013-09-17 15:30:00,
2013-09-17 11:35:00,56.7,45.5,30.37,South,175,2.0,7.0,66,0.00,,,0.00,670.0,meteohub,2013-09-17 15:35:00,
2013-09-17 11:40:00,58.3,47.3,30.37,SW,234,2.0,8.0,67,0.00,,,0.00,680.0,meteohub,2013-09-17 15:40:00,
2013-09-17 11:45:00,58.1,45.5,30.37,SW,214,9.0,9.0,63,0.00,,,0.00,689.0,meteohub,2013-09-17 15:45:00,
2013-09-17 11:50:00,57.0,45.0,30.36,SW,228,8.0,11.0,64,0.00,,,0.00,698.0,meteohub,2013-09-17 15:50:00,
2013-09-17 11:55:00,58.3,46.6,30.36,South,174,5.0,11.0,65,0.00,,,0.00,705.0,meteohub,2013-09-17 15:55:00,
2013-09-17 12:00:00,58.3,45.0,30.36,SSW,201,4.0,11.0,61,0.00,,,0.00,712.0,meteohub,2013-09-17 16:00:00,
2013-09-17 12:05:00,58.6,45.7,30.36,SSW,212,5.0,10.0,62,0.00,,,0.00,719.0,meteohub,2013-09-17 16:05:00,
2013-09-17 12:10:00,58.5,45.1,30.36,SSW,198,4.0,7.0,61,0.00,,,0.00,724.0,meteohub,2013-09-17 16:10:00,
2013-09-17 12:15:00,58.6,45.7,30.36,South,187,3.0,7.0,62,0.00,,,0.00,729.0,meteohub,2013-09-17 16:15:00,
2013-09-17 12:20:00,59.7,45.9,30.36,SW,227,5.0,7.0,60,0.00,,,0.00,735.0,meteohub,2013-09-17 16:20:00,
2013-09-17 12:25:00,59.4,45.9,30.36,SW,230,2.0,7.0,61,0.00,,,0.00,740.0,meteohub,2013-09-17 16:25:00,
2013-09-17 12:30:00,59.4,45.5,30.36,WSW,239,2.0,7.0,60,0.00,,,0.00,749.0,meteohub,2013-09-17 16:30:00,
2013-09-17 12:35:00,59.2,45.3,30.35,SSW,205,1.0,9.0,60,0.00,,,0.00,752.0,meteohub,2013-09-17 16:35:00,
2013-09-17 12:40:00,60.3,45.9,30.35,SSW,202,3.0,9.0,59,0.00,,,0.00,756.0,meteohub,2013-09-17 16:40:00,
2013-09-17 12:45:00,59.9,45.5,30.35,SW,215,2.0,6.0,59,0.00,,,0.00,761.0,meteohub,2013-09-17 16:45:00,
2013-09-17 12:50:00,61.0,45.7,30.35,ENE,65,1.0,6.0,57,0.00,,,0.00,763.0,meteohub,2013-09-17 16:50:00,
2013-09-17 12:56:00,61.9,47.5,30.35,SW,220,2.0,5.0,59,0.00,,,0.00,768.0,meteohub,2013-09-17 16:56:00,
2013-09-17 13:01:00,61.0,45.7,30.34,SW,221,4.0,6.0,57,0.00,,,0.00,772.0,meteohub,2013-09-17 17:01:00,
2013-09-17 13:06:00,61.5,45.7,30.34,South,178,2.0,6.0,56,0.00,,,0.00,773.0,meteohub,2013-09-17 17:06:00,
2013-09-17 13:11:00,62.1,46.6,30.34,SW,215,2.0,7.0,57,0.00,,,0.00,772.0,meteohub,2013-09-17 17:11:00,
2013-09-17 13:16:00,63.0,46.0,30.34,ESE,115,0.0,7.0,54,0.00,,,0.00,773.0,meteohub,2013-09-17 17:16:00,
2013-09-17 13:21:00,61.0,44.8,30.33,SW,223,5.0,8.0,55,0.00,,,0.00,775.0,meteohub,2013-09-17 17:21:00,
2013-09-17 13:26:00,61.9,45.5,30.33,SW,229,2.0,8.0,55,0.00,,,0.00,773.0,meteohub,2013-09-17 17:26:00,
2013-09-17 13:31:00,61.5,46.6,30.33,West,279,1.0,8.0,58,0.00,,,0.00,775.0,meteohub,2013-09-17 17:31:00,
2013-09-17 13:36:00,63.1,45.1,30.33,South,174,1.0,6.0,52,0.00,,,0.00,777.0,meteohub,2013-09-17 17:36:00,
2013-09-17 13:41:00,62.6,46.8,30.32,West,281,1.0,6.0,56,0.00,,,0.00,782.0,meteohub,2013-09-17 17:41:00,
2013-09-17 13:46:00,63.1,47.1,30.32,SSW,202,4.0,6.0,56,0.00,,,0.00,782.0,meteohub,2013-09-17 17:46:00,
2013-09-17 13:51:00,63.1,45.1,30.32,SSW,196,3.0,6.0,52,0.00,,,0.00,777.0,meteohub,2013-09-17 17:51:00,
2013-09-17 13:56:00,62.8,45.9,30.32,SSW,195,2.0,7.0,54,0.00,,,0.00,772.0,meteohub,2013-09-17 17:56:00,
2013-09-17 14:01:00,63.7,44.8,30.31,South,186,4.0,7.0,50,0.00,,,0.00,768.0,meteohub,2013-09-17 18:01:00,
2013-09-17 14:06:00,63.0,44.6,30.31,WSW,248,1.0,7.0,51,0.00,,,0.00,765.0,meteohub,2013-09-17 18:06:00,
2013-09-17 14:11:00,64.2,45.7,30.30,NNW,327,0.0,6.0,51,0.00,,,0.00,759.0,meteohub,2013-09-17 18:11:00,
2013-09-17 14:16:00,64.0,45.5,30.30,SE,139,1.0,5.0,51,0.00,,,0.00,759.0,meteohub,2013-09-17 18:16:00,
2013-09-17 14:21:00,65.3,48.2,30.30,SSE,149,2.0,5.0,54,0.00,,,0.00,758.0,meteohub,2013-09-17 18:21:00,
2013-09-17 14:26:00,65.1,45.5,30.30,East,86,1.0,5.0,49,0.00,,,0.00,756.0,meteohub,2013-09-17 18:26:00,
2013-09-17 14:31:00,64.9,45.9,30.30,SSW,194,3.0,5.0,50,0.00,,,0.00,747.0,meteohub,2013-09-17 18:31:00,
2013-09-17 14:36:00,63.7,45.7,30.29,SSW,211,4.0,7.0,52,0.00,,,0.00,747.0,meteohub,2013-09-17 18:36:00,
2013-09-17 14:41:00,64.8,46.2,30.29,South,173,3.0,7.0,51,0.00,,,0.00,742.0,meteohub,2013-09-17 18:41:00,
2013-09-17 14:46:00,65.1,47.5,30.28,NNW,333,0.0,7.0,53,0.00,,,0.00,735.0,meteohub,2013-09-17 18:46:00,
2013-09-17 14:51:00,65.8,45.7,30.28,SW,218,0.0,6.0,48,0.00,,,0.00,729.0,meteohub,2013-09-17 18:51:00,
2013-09-17 14:56:00,65.5,46.4,30.28,ESE,118,1.0,6.0,50,0.00,,,0.00,719.0,meteohub,2013-09-17 18:56:00,
2013-09-17 15:01:00,64.0,44.4,30.28,SW,231,2.0,5.0,49,0.00,,,0.00,712.0,meteohub,2013-09-17 19:01:00,
2013-09-17 15:06:00,63.7,45.7,30.27,SSW,202,6.0,6.0,52,0.00,,,0.00,703.0,meteohub,2013-09-17 19:06:00,
2013-09-17 15:11:00,64.0,46.0,30.27,WNW,299,1.0,6.0,52,0.00,,,0.00,698.0,meteohub,2013-09-17 19:11:00,
2013-09-17 15:16:00,64.9,47.5,30.27,SW,217,2.0,6.0,53,0.00,,,0.00,689.0,meteohub,2013-09-17 19:16:00,
2013-09-17 15:21:00,64.6,46.6,30.27,North,351,1.0,6.0,52,0.00,,,0.00,680.0,meteohub,2013-09-17 19:21:00,
2013-09-17 15:26:00,63.9,47.3,30.27,NW,320,1.0,4.0,55,0.00,,,0.00,670.0,meteohub,2013-09-17 19:26:00,
2013-09-17 15:32:00,64.0,46.0,30.27,NE,34,1.0,4.0,52,0.00,,,0.00,661.0,meteohub,2013-09-17 19:32:00,
2013-09-17 15:37:00,63.9,46.9,30.26,NW,309,1.0,4.0,54,0.00,,,0.00,654.0,meteohub,2013-09-17 19:37:00,
2013-09-17 15:42:00,64.0,47.1,30.26,East,84,1.0,4.0,54,0.00,,,0.00,643.0,meteohub,2013-09-17 19:42:00,
2013-09-17 15:47:00,64.2,46.8,30.25,NNW,347,1.0,4.0,53,0.00,,,0.00,635.0,meteohub,2013-09-17 19:47:00,
2013-09-17 15:52:00,64.2,49.6,30.25,West,269,1.0,4.0,59,0.00,,,0.00,626.0,meteohub,2013-09-17 19:52:00,
2013-09-17 15:57:00,63.9,49.3,30.25,West,269,1.0,4.0,59,0.00,,,0.00,615.0,meteohub,2013-09-17 19:57:00,
2013-09-17 16:02:00,63.9,49.6,30.25,NE,43,2.0,3.0,60,0.00,,,0.00,606.0,meteohub,2013-09-17 20:02:00,
2013-09-17 16:07:00,64.4,47.5,30.25,North,5,1.0,2.0,54,0.00,,,0.00,594.0,meteohub,2013-09-17 20:07:00,
2013-09-17 16:12:00,63.9,48.7,30.24,East,99,7.0,7.0,58,0.00,,,0.00,584.0,meteohub,2013-09-17 20:12:00,
2013-09-17 16:17:00,63.9,49.3,30.24,NW,306,2.0,7.0,59,0.00,,,0.00,571.0,meteohub,2013-09-17 20:17:00,
2013-09-17 16:22:00,63.7,49.1,30.24,NNE,15,1.0,7.0,59,0.00,,,0.00,563.0,meteohub,2013-09-17 20:22:00,
2013-09-17 16:27:00,63.3,48.4,30.23,NE,38,1.0,7.0,58,0.00,,,0.00,552.0,meteohub,2013-09-17 20:27:00,
2013-09-17 16:32:00,63.0,49.3,30.23,East,97,3.0,7.0,61,0.00,,,0.00,540.0,meteohub,2013-09-17 20:32:00,
2013-09-17 16:37:00,63.0,48.9,30.23,NE,40,1.0,9.0,60,0.00,,,0.00,526.0,meteohub,2013-09-17 20:37:00,
2013-09-17 16:42:00,63.0,49.8,30.23,East,84,2.0,9.0,62,0.00,,,0.00,512.0,meteohub,2013-09-17 20:42:00,
2013-09-17 16:47:00,62.8,49.6,30.23,East,96,8.0,8.0,62,0.00,,,0.00,497.0,meteohub,2013-09-17 20:47:00,
2013-09-17 16:52:00,62.2,49.1,30.22,ENE,71,5.0,11.0,62,0.00,,,0.00,487.0,meteohub,2013-09-17 20:52:00,
2013-09-17 16:57:00,62.4,49.6,30.22,NNE,13,4.0,11.0,63,0.00,,,0.00,473.0,meteohub,2013-09-17 20:57:00,
2013-09-17 17:02:00,61.9,49.1,30.22,ENE,66,8.0,11.0,63,0.00,,,0.00,420.0,meteohub,2013-09-17 21:02:00,
2013-09-17 17:07:00,61.5,49.6,30.22,NE,53,4.0,10.0,65,0.00,,,0.00,33.0,meteohub,2013-09-17 21:07:00,
2013-09-17 17:12:00,61.5,50.0,30.22,NE,55,1.0,10.0,66,0.00,,,0.00,42.0,meteohub,2013-09-17 21:12:00,
2013-09-17 17:17:00,61.5,49.6,30.22,NE,44,3.0,10.0,65,0.00,,,0.00,30.0,meteohub,2013-09-17 21:17:00,
2013-09-17 17:22:00,61.5,50.0,30.22,East,80,5.0,9.0,66,0.00,,,0.00,30.0,meteohub,2013-09-17 21:22:00,
2013-09-17 17:27:00,61.5,50.0,30.22,ENE,70,3.0,8.0,66,0.00,,,0.00,30.0,meteohub,2013-09-17 21:27:00,
2013-09-17 17:32:00,61.5,50.0,30.21,East,86,2.0,9.0,66,0.00,,,0.00,30.0,meteohub,2013-09-17 21:32:00,
2013-09-17 17:37:00,61.3,50.4,30.21,ENE,74,2.0,9.0,67,0.00,,,0.00,28.0,meteohub,2013-09-17 21:37:00,
2013-09-17 17:42:00,61.3,50.4,30.21,East,90,2.0,9.0,67,0.00,,,0.00,28.0,meteohub,2013-09-17 21:42:00,
2013-09-17 17:47:00,61.3,50.4,30.21,ENE,65,4.0,8.0,67,0.00,,,0.00,26.0,meteohub,2013-09-17 21:47:00,
2013-09-17 17:52:00,61.0,50.4,30.21,NE,39,5.0,9.0,68,0.00,,,0.00,26.0,meteohub,2013-09-17 21:52:00,
2013-09-17 17:57:00,61.0,50.7,30.21,ENE,58,3.0,9.0,69,0.00,,,0.00,26.0,meteohub,2013-09-17 21:57:00,
2013-09-17 18:02:00,61.0,50.7,30.21,NE,53,4.0,9.0,69,0.00,,,0.00,25.0,meteohub,2013-09-17 22:02:00,
2013-09-17 18:07:00,60.8,50.9,30.21,ENE,61,2.0,9.0,70,0.00,,,0.00,25.0,meteohub,2013-09-17 22:07:00,
2013-09-17 18:12:00,60.6,51.1,30.21,NE,48,1.0,9.0,71,0.00,,,0.00,25.0,meteohub,2013-09-17 22:12:00,
2013-09-17 18:17:00,60.4,51.4,30.20,East,81,6.0,9.0,72,0.00,,,0.00,23.0,meteohub,2013-09-17 22:17:00,
2013-09-17 18:22:00,60.3,51.6,30.20,NE,49,6.0,8.0,73,0.00,,,0.00,23.0,meteohub,2013-09-17 22:22:00,
2013-09-17 18:27:00,60.1,51.4,30.20,ESE,123,2.0,9.0,73,0.00,,,0.00,23.0,meteohub,2013-09-17 22:27:00,
2013-09-17 18:32:00,59.7,51.8,30.19,ENE,65,2.0,9.0,75,0.00,,,0.00,21.0,meteohub,2013-09-17 22:32:00,
2013-09-17 18:37:00,59.5,51.3,30.19,ENE,76,2.0,9.0,74,0.00,,,0.00,21.0,meteohub,2013-09-17 22:37:00,
2013-09-17 18:42:00,59.4,51.4,30.19,NE,40,2.0,8.0,75,0.00,,,0.00,19.0,meteohub,2013-09-17 22:42:00,
2013-09-17 18:47:00,59.2,51.3,30.19,ENE,59,5.0,8.0,75,0.00,,,0.00,19.0,meteohub,2013-09-17 22:47:00,
2013-09-17 18:52:00,59.0,51.4,30.19,NE,50,2.0,7.0,76,0.00,,,0.00,18.0,meteohub,2013-09-17 22:52:00,
2013-09-17 18:57:00,58.6,51.4,30.19,NE,38,1.0,7.0,77,0.00,,,0.00,18.0,meteohub,2013-09-17 22:57:00,
2013-09-17 19:02:00,58.5,51.3,30.19,ESE,104,3.0,7.0,77,0.00,,,0.00,16.0,meteohub,2013-09-17 23:02:00,
2013-09-17 19:07:00,58.3,51.4,30.19,ENE,65,2.0,8.0,78,0.00,,,0.00,14.0,meteohub,2013-09-17 23:07:00,
2013-09-17 19:12:00,58.1,51.6,30.18,ENE,65,2.0,8.0,79,0.00,,,0.00,14.0,meteohub,2013-09-17 23:12:00,
2013-09-17 19:17:00,57.7,51.6,30.18,ENE,59,2.0,8.0,80,0.00,,,0.00,12.0,meteohub,2013-09-17 23:17:00,
2013-09-17 19:22:00,57.6,51.8,30.18,ENE,69,3.0,6.0,81,0.00,,,0.00,11.0,meteohub,2013-09-17 23:22:00,
2013-09-17 19:27:00,57.4,51.6,30.18,ENE,77,2.0,6.0,81,0.00,,,0.00,9.0,meteohub,2013-09-17 23:27:00,
2013-09-17 19:32:00,57.2,51.8,30.17,ENE,59,1.0,5.0,82,0.00,,,0.00,7.0,meteohub,2013-09-17 23:32:00,
2013-09-17 19:37:00,56.8,51.8,30.17,ENE,68,2.0,5.0,83,0.00,,,0.00,5.0,meteohub,2013-09-17 23:37:00,
2013-09-17 19:42:00,56.7,51.8,30.17,ENE,67,0.0,5.0,84,0.00,,,0.00,0.0,meteohub,2013-09-17 23:42:00,
2013-09-17 19:47:00,56.3,51.8,30.17,ENE,67,0.0,4.0,85,0.00,,,0.00,0.0,meteohub,2013-09-17 23:47:00,
2013-09-17 19:52:00,55.8,51.6,30.17,ENE,67,0.0,2.0,86,0.00,,,0.00,0.0,meteohub,2013-09-17 23:52:00,
2013-09-17 19:57:00,55.2,51.4,30.17,ENE,67,0.0,2.0,87,0.00,,,0.00,0.0,meteohub,2013-09-17 23:57:00,
2013-09-17 20:02:00,54.9,51.4,30.16,ENE,67,0.0,1.0,88,0.00,,,0.00,0.0,meteohub,2013-09-18 00:02:00,
2013-09-17 20:07:00,54.9,51.6,30.16,ENE,67,1.0,2.0,89,0.00,,,0.00,0.0,meteohub,2013-09-18 00:07:00,
2013-09-17 20:12:00,54.9,51.6,30.16,ENE,67,0.0,2.0,89,0.00,,,0.00,0.0,meteohub,2013-09-18 00:12:00,
2013-09-17 20:17:00,54.7,51.4,30.16,ENE,67,0.0,2.0,89,0.00,,,0.00,0.0,meteohub,2013-09-18 00:17:00,
2013-09-17 20:22:00,54.3,51.4,30.16,ENE,67,0.0,2.0,90,0.00,,,0.00,0.0,meteohub,2013-09-18 00:22:00,
2013-09-17 20:27:00,54.1,51.3,30.16,ENE,67,0.0,1.0,90,0.00,,,0.00,0.0,meteohub,2013-09-18 00:27:00,
2013-09-17 20:32:00,54.0,51.1,30.16,ENE,67,0.0,1.0,90,0.00,,,0.00,0.0,meteohub,2013-09-18 00:32:00,
2013-09-17 20:37:00,53.8,51.3,30.16,ENE,67,0.0,1.0,91,0.00,,,0.00,0.0,meteohub,2013-09-18 00:37:00,
2013-09-17 20:42:00,53.4,50.9,30.16,ENE,67,0.0,1.0,91,0.00,,,0.00,0.0,meteohub,2013-09-18 00:42:00,
2013-09-17 20:47:00,53.1,50.2,30.16,ENE,67,1.0,1.0,90,0.00,,,0.00,0.0,meteohub,2013-09-18 00:47:00,
2013-09-17 20:52:00,52.2,49.3,30.16,ENE,67,0.0,1.0,90,0.00,,,0.00,0.0,meteohub,2013-09-18 00:52:00,
2013-09-17 20:57:00,51.6,49.1,30.16,ENE,67,0.0,1.0,91,0.00,,,0.00,0.0,meteohub,2013-09-18 00:57:00,
2013-09-17 21:03:00,51.3,49.3,30.16,ENE,67,0.0,1.0,93,0.00,,,0.00,0.0,meteohub,2013-09-18 01:03:00,
2013-09-17 21:08:00,51.1,49.1,30.16,ENE,67,1.0,1.0,93,0.00,,,0.00,0.0,meteohub,2013-09-18 01:08:00,
2013-09-17 21:13:00,50.9,49.3,30.16,ENE,67,0.0,1.0,94,0.00,,,0.00,0.0,meteohub,2013-09-18 01:13:00,
2013-09-17 21:18:00,50.7,49.1,30.16,ENE,67,0.0,1.0,94,0.00,,,0.00,0.0,meteohub,2013-09-18 01:18:00,
2013-09-17 21:23:00,50.5,48.9,30.16,ENE,67,0.0,1.0,94,0.00,,,0.00,0.0,meteohub,2013-09-18 01:23:00,
2013-09-17 21:28:00,50.2,48.6,30.16,ENE,67,1.0,1.0,94,0.00,,,0.00,0.0,meteohub,2013-09-18 01:28:00,
2013-09-17 21:33:00,49.8,48.2,30.16,ENE,67,0.0,2.0,94,0.00,,,0.00,0.0,meteohub,2013-09-18 01:33:00,
2013-09-17 21:38:00,49.8,48.4,30.16,ENE,67,0.0,2.0,95,0.00,,,0.00,0.0,meteohub,2013-09-18 01:38:00,
2013-09-17 21:43:00,49.5,48.0,30.16,ENE,67,0.0,2.0,95,0.00,,,0.00,0.0,meteohub,2013-09-18 01:43:00,
2013-09-17 21:48:00,49.5,48.4,30.16,ENE,67,0.0,1.0,96,0.00,,,0.00,0.0,meteohub,2013-09-18 01:48:00,
2013-09-17 21:53:00,49.5,48.4,30.16,ENE,67,1.0,1.0,96,0.00,,,0.00,0.0,meteohub,2013-09-18 01:53:00,
2013-09-17 21:58:00,49.6,48.7,30.16,ESE,115,1.0,1.0,97,0.00,,,0.00,0.0,meteohub,2013-09-18 01:58:00,
2013-09-17 22:03:00,50.2,49.3,30.16,SSE,157,1.0,2.0,97,0.00,,,0.00,0.0,meteohub,2013-09-18 02:03:00,
2013-09-17 22:08:00,50.4,49.5,30.16,South,171,1.0,2.0,97,0.00,,,0.00,0.0,meteohub,2013-09-18 02:08:00,
2013-09-17 22:13:00,50.2,49.3,30.16,South,171,1.0,2.0,97,0.00,,,0.00,0.0,meteohub,2013-09-18 02:13:00,
2013-09-17 22:18:00,49.8,48.7,30.16,South,172,2.0,2.0,96,0.00,,,0.00,0.0,meteohub,2013-09-18 02:18:00,
2013-09-17 22:23:00,49.6,48.2,30.16,South,173,1.0,2.0,95,0.00,,,0.00,0.0,meteohub,2013-09-18 02:23:00,
2013-09-17 22:29:00,49.6,47.7,30.16,South,182,2.0,2.0,93,0.00,,,0.00,0.0,meteohub,2013-09-18 02:29:00,
2013-09-17 22:34:00,49.6,47.1,30.16,SSW,202,1.0,2.0,91,0.00,,,0.00,0.0,meteohub,2013-09-18 02:34:00,
2013-09-17 22:39:00,50.2,46.4,30.16,SSW,204,2.0,2.0,87,0.00,,,0.00,0.0,meteohub,2013-09-18 02:39:00,
2013-09-17 22:44:00,50.4,46.0,30.16,SSW,203,2.0,3.0,85,0.00,,,0.00,0.0,meteohub,2013-09-18 02:44:00,
2013-09-17 22:49:00,50.7,45.7,30.16,SSW,213,2.0,3.0,83,0.00,,,0.00,0.0,meteohub,2013-09-18 02:49:00,
2013-09-17 22:54:00,50.7,45.5,30.16,South,181,1.0,4.0,82,0.00,,,0.00,0.0,meteohub,2013-09-18 02:54:00,
2013-09-17 22:59:00,50.9,45.3,30.15,SSW,207,1.0,4.0,81,0.00,,,0.00,0.0,meteohub,2013-09-18 02:59:00,
2013-09-17 23:04:00,50.9,45.0,30.16,South,190,0.0,3.0,80,0.00,,,0.00,0.0,meteohub,2013-09-18 03:04:00,
2013-09-17 23:10:00,50.9,44.6,30.16,SW,223,3.0,3.0,79,0.00,,,0.00,0.0,meteohub,2013-09-18 03:10:00,
2013-09-17 23:15:00,50.9,44.6,30.16,South,191,1.0,3.0,79,0.00,,,0.00,0.0,meteohub,2013-09-18 03:15:00,
2013-09-17 23:20:00,50.7,44.1,30.16,South,191,0.0,3.0,78,0.00,,,0.00,0.0,meteohub,2013-09-18 03:20:00,
2013-09-17 23:25:00,50.5,44.2,30.16,South,191,1.0,3.0,79,0.00,,,0.00,0.0,meteohub,2013-09-18 03:25:00,
2013-09-17 23:30:00,50.4,44.1,30.15,South,191,0.0,3.0,79,0.00,,,0.00,0.0,meteohub,2013-09-18 03:30:00,
2013-09-17 23:35:00,50.2,43.9,30.15,South,191,0.0,1.0,79,0.00,,,0.00,0.0,meteohub,2013-09-18 03:35:00,
2013-09-17 23:40:00,50.2,43.9,30.15,South,191,0.0,2.0,79,0.00,,,0.00,0.0,meteohub,2013-09-18 03:40:00,
2013-09-17 23:45:00,49.6,44.1,30.15,South,191,1.0,2.0,81,0.00,,,0.00,0.0,meteohub,2013-09-18 03:45:00,
2013-09-17 23:50:00,49.3,44.1,30.15,SW,231,1.0,2.0,82,0.00,,,0.00,0.0,meteohub,2013-09-18 03:50:00,
2013-09-17 23:55:00,48.9,43.7,30.15,SW,231,0.0,2.0,82,0.00,,,0.00,0.0,meteohub,2013-09-18 03:55:00,